sensor_id;sensor_type;location;lat;lon;timestamp;P1;durP1;ratioP1;P2;durP2;ratioP2
75090;SDS011;63674;48.048;8.306;2023-06-22T00:00:40;13.65;;;5.88;;
75090;SDS011;63674;48.048;8.306;2023-06-22T00:03:10;13.82;;;6.25;;
75090;SDS011;63674;48.048;8.306;2023-06-22T00:05:39;12.43;;;5.43;;
75090;SDS011;63674;48.048;8.306;2023-06-22T00:08:09;11.15;;;4.88;;
75090;SDS011;63674;48.048;8.306;2023-06-22T00:10:37;13.15;;;5.40;;
75090;SDS011;63674;48.048;8.306;2023-06-22T00:13:06;16.35;;;6.15;;
75090;SDS011;63674;48.048;8.306;2023-06-22T00:15:36;11.57;;;6.38;;
75090;SDS011;63674;48.048;8.306;2023-06-22T00:18:07;11.30;;;5.00;;
75090;SDS011;63674;48.048;8.306;2023-06-22T00:20:37;10.93;;;5.25;;
75090;SDS011;63674;48.048;8.306;2023-06-22T00:23:06;14.68;;;6.43;;
75090;SDS011;63674;48.048;8.306;2023-06-22T00:25:36;14.73;;;7.30;;
75090;SDS011;63674;48.048;8.306;2023-06-22T00:28:06;14.88;;;6.65;;
75090;SDS011;63674;48.048;8.306;2023-06-22T00:30:35;16.13;;;7.30;;
75090;SDS011;63674;48.048;8.306;2023-06-22T00:33:04;17.42;;;6.30;;
75090;SDS011;63674;48.048;8.306;2023-06-22T00:35:34;11.65;;;5.75;;
75090;SDS011;63674;48.048;8.306;2023-06-22T00:38:02;16.35;;;6.38;;
75090;SDS011;63674;48.048;8.306;2023-06-22T00:40:33;14.05;;;6.82;;
75090;SDS011;63674;48.048;8.306;2023-06-22T00:43:01;14.50;;;7.50;;
75090;SDS011;63674;48.048;8.306;2023-06-22T00:45:31;15.10;;;7.95;;
75090;SDS011;63674;48.048;8.306;2023-06-22T00:48:00;15.48;;;7.53;;
75090;SDS011;63674;48.048;8.306;2023-06-22T00:50:30;14.90;;;7.25;;
75090;SDS011;63674;48.048;8.306;2023-06-22T00:53:03;21.45;;;8.30;;
75090;SDS011;63674;48.048;8.306;2023-06-22T00:55:37;14.27;;;7.90;;
75090;SDS011;63674;48.048;8.306;2023-06-22T00:58:09;15.30;;;7.25;;
75090;SDS011;63674;48.048;8.306;2023-06-22T01:00:39;17.48;;;7.20;;
75090;SDS011;63674;48.048;8.306;2023-06-22T01:03:08;13.07;;;6.05;;
75090;SDS011;63674;48.048;8.306;2023-06-22T01:05:38;13.70;;;6.47;;
75090;SDS011;63674;48.048;8.306;2023-06-22T01:08:16;12.47;;;5.60;;
75090;SDS011;63674;48.048;8.306;2023-06-22T01:11:07;17.20;;;5.50;;
75090;SDS011;63674;48.048;8.306;2023-06-22T01:13:47;12.55;;;5.45;;
75090;SDS011;63674;48.048;8.306;2023-06-22T01:16:25;11.55;;;5.55;;
75090;SDS011;63674;48.048;8.306;2023-06-22T01:18:57;12.40;;;5.88;;
75090;SDS011;63674;48.048;8.306;2023-06-22T01:21:30;13.67;;;5.83;;
75090;SDS011;63674;48.048;8.306;2023-06-22T01:24:02;15.70;;;6.70;;
75090;SDS011;63674;48.048;8.306;2023-06-22T01:26:47;15.57;;;6.93;;
75090;SDS011;63674;48.048;8.306;2023-06-22T01:29:28;16.13;;;5.70;;
75090;SDS011;63674;48.048;8.306;2023-06-22T01:31:58;13.05;;;5.78;;
75090;SDS011;63674;48.048;8.306;2023-06-22T01:34:28;14.13;;;5.37;;
75090;SDS011;63674;48.048;8.306;2023-06-22T01:36:59;13.98;;;6.28;;
75090;SDS011;63674;48.048;8.306;2023-06-22T01:39:29;14.20;;;6.03;;
75090;SDS011;63674;48.048;8.306;2023-06-22T01:41:58;14.80;;;6.45;;
75090;SDS011;63674;48.048;8.306;2023-06-22T01:44:29;15.07;;;5.55;;
75090;SDS011;63674;48.048;8.306;2023-06-22T01:46:58;8.87;;;5.00;;
75090;SDS011;63674;48.048;8.306;2023-06-22T01:49:27;15.05;;;5.70;;
75090;SDS011;63674;48.048;8.306;2023-06-22T01:51:57;14.73;;;5.53;;
75090;SDS011;63674;48.048;8.306;2023-06-22T01:54:26;12.80;;;6.63;;
75090;SDS011;63674;48.048;8.306;2023-06-22T01:56:54;15.70;;;5.88;;
75090;SDS011;63674;48.048;8.306;2023-06-22T01:59:25;13.03;;;5.73;;
75090;SDS011;63674;48.048;8.306;2023-06-22T02:02:01;13.98;;;6.25;;
75090;SDS011;63674;48.048;8.306;2023-06-22T02:04:35;16.77;;;6.97;;
75090;SDS011;63674;48.048;8.306;2023-06-22T02:07:12;14.10;;;5.90;;
75090;SDS011;63674;48.048;8.306;2023-06-22T02:09:43;11.38;;;5.22;;
75090;SDS011;63674;48.048;8.306;2023-06-22T02:12:13;16.20;;;5.47;;
75090;SDS011;63674;48.048;8.306;2023-06-22T02:14:47;22.00;;;8.07;;
75090;SDS011;63674;48.048;8.306;2023-06-22T02:17:17;15.05;;;6.75;;
75090;SDS011;63674;48.048;8.306;2023-06-22T02:19:46;19.85;;;7.53;;
75090;SDS011;63674;48.048;8.306;2023-06-22T02:22:15;15.68;;;6.95;;
75090;SDS011;63674;48.048;8.306;2023-06-22T02:24:44;16.87;;;6.83;;
75090;SDS011;63674;48.048;8.306;2023-06-22T02:27:13;17.90;;;6.45;;
75090;SDS011;63674;48.048;8.306;2023-06-22T02:29:41;17.58;;;7.78;;
75090;SDS011;63674;48.048;8.306;2023-06-22T02:32:11;16.27;;;7.30;;
75090;SDS011;63674;48.048;8.306;2023-06-22T02:34:41;16.27;;;7.40;;
75090;SDS011;63674;48.048;8.306;2023-06-22T02:37:14;15.27;;;6.77;;
75090;SDS011;63674;48.048;8.306;2023-06-22T02:39:43;13.35;;;6.60;;
75090;SDS011;63674;48.048;8.306;2023-06-22T02:42:11;15.77;;;7.18;;
75090;SDS011;63674;48.048;8.306;2023-06-22T02:44:40;17.23;;;7.82;;
75090;SDS011;63674;48.048;8.306;2023-06-22T02:47:09;20.08;;;8.15;;
75090;SDS011;63674;48.048;8.306;2023-06-22T02:49:39;20.03;;;8.07;;
75090;SDS011;63674;48.048;8.306;2023-06-22T02:52:08;28.70;;;8.40;;
75090;SDS011;63674;48.048;8.306;2023-06-22T02:54:37;78.20;;;10.30;;
75090;SDS011;63674;48.048;8.306;2023-06-22T02:57:05;37.03;;;8.43;;
75090;SDS011;63674;48.048;8.306;2023-06-22T02:59:40;18.00;;;7.03;;
75090;SDS011;63674;48.048;8.306;2023-06-22T03:02:09;38.63;;;7.43;;
75090;SDS011;63674;48.048;8.306;2023-06-22T03:04:40;32.92;;;7.78;;
75090;SDS011;63674;48.048;8.306;2023-06-22T03:07:09;80.97;;;9.35;;
75090;SDS011;63674;48.048;8.306;2023-06-22T03:09:37;28.20;;;7.97;;
75090;SDS011;63674;48.048;8.306;2023-06-22T03:12:06;25.65;;;6.40;;
75090;SDS011;63674;48.048;8.306;2023-06-22T03:14:35;20.93;;;6.70;;
75090;SDS011;63674;48.048;8.306;2023-06-22T03:17:05;29.58;;;6.97;;
75090;SDS011;63674;48.048;8.306;2023-06-22T03:19:34;18.52;;;6.70;;
75090;SDS011;63674;48.048;8.306;2023-06-22T03:22:04;13.43;;;5.93;;
75090;SDS011;63674;48.048;8.306;2023-06-22T03:24:34;14.23;;;6.28;;
75090;SDS011;63674;48.048;8.306;2023-06-22T03:27:04;13.73;;;6.07;;
75090;SDS011;63674;48.048;8.306;2023-06-22T03:29:33;23.33;;;6.97;;
75090;SDS011;63674;48.048;8.306;2023-06-22T03:32:02;26.40;;;6.78;;
75090;SDS011;63674;48.048;8.306;2023-06-22T03:34:32;21.63;;;7.57;;
75090;SDS011;63674;48.048;8.306;2023-06-22T03:37:05;20.30;;;7.45;;
75090;SDS011;63674;48.048;8.306;2023-06-22T03:39:33;16.63;;;7.07;;
75090;SDS011;63674;48.048;8.306;2023-06-22T03:42:02;23.73;;;6.75;;
75090;SDS011;63674;48.048;8.306;2023-06-22T03:44:32;31.38;;;9.07;;
75090;SDS011;63674;48.048;8.306;2023-06-22T03:47:02;32.03;;;7.57;;
75090;SDS011;63674;48.048;8.306;2023-06-22T03:49:33;22.60;;;7.55;;
75090;SDS011;63674;48.048;8.306;2023-06-22T03:52:02;38.50;;;8.43;;
75090;SDS011;63674;48.048;8.306;2023-06-22T03:54:33;33.72;;;8.18;;
75090;SDS011;63674;48.048;8.306;2023-06-22T03:57:02;26.77;;;7.80;;
75090;SDS011;63674;48.048;8.306;2023-06-22T03:59:31;38.75;;;8.02;;
75090;SDS011;63674;48.048;8.306;2023-06-22T04:02:00;52.25;;;7.95;;
75090;SDS011;63674;48.048;8.306;2023-06-22T04:04:28;73.07;;;8.10;;
75090;SDS011;63674;48.048;8.306;2023-06-22T04:06:57;17.95;;;6.40;;
75090;SDS011;63674;48.048;8.306;2023-06-22T04:09:27;13.82;;;6.10;;
75090;SDS011;63674;48.048;8.306;2023-06-22T04:11:55;15.10;;;7.13;;
75090;SDS011;63674;48.048;8.306;2023-06-22T04:14:24;15.27;;;6.60;;
75090;SDS011;63674;48.048;8.306;2023-06-22T04:16:53;14.00;;;6.57;;
75090;SDS011;63674;48.048;8.306;2023-06-22T04:19:21;16.02;;;6.28;;
75090;SDS011;63674;48.048;8.306;2023-06-22T04:21:50;20.23;;;7.40;;
75090;SDS011;63674;48.048;8.306;2023-06-22T04:24:18;15.07;;;6.72;;
75090;SDS011;63674;48.048;8.306;2023-06-22T04:26:48;19.40;;;7.82;;
75090;SDS011;63674;48.048;8.306;2023-06-22T04:29:21;14.50;;;6.67;;
75090;SDS011;63674;48.048;8.306;2023-06-22T04:31:55;23.15;;;7.40;;
75090;SDS011;63674;48.048;8.306;2023-06-22T04:34:25;29.35;;;7.53;;
75090;SDS011;63674;48.048;8.306;2023-06-22T04:36:53;35.40;;;8.55;;
75090;SDS011;63674;48.048;8.306;2023-06-22T04:39:22;16.73;;;6.75;;
75090;SDS011;63674;48.048;8.306;2023-06-22T04:41:52;12.40;;;6.00;;
75090;SDS011;63674;48.048;8.306;2023-06-22T04:44:26;14.20;;;7.18;;
75090;SDS011;63674;48.048;8.306;2023-06-22T04:46:56;12.63;;;6.80;;
75090;SDS011;63674;48.048;8.306;2023-06-22T04:49:29;12.95;;;6.38;;
75090;SDS011;63674;48.048;8.306;2023-06-22T04:52:01;13.20;;;7.00;;
75090;SDS011;63674;48.048;8.306;2023-06-22T04:54:31;11.97;;;6.97;;
75090;SDS011;63674;48.048;8.306;2023-06-22T04:57:03;14.57;;;7.20;;
75090;SDS011;63674;48.048;8.306;2023-06-22T04:59:37;13.68;;;7.05;;
75090;SDS011;63674;48.048;8.306;2023-06-22T05:02:08;12.40;;;6.15;;
75090;SDS011;63674;48.048;8.306;2023-06-22T05:04:37;12.70;;;6.32;;
75090;SDS011;63674;48.048;8.306;2023-06-22T05:07:06;11.97;;;6.37;;
75090;SDS011;63674;48.048;8.306;2023-06-22T05:09:36;11.25;;;6.20;;
75090;SDS011;63674;48.048;8.306;2023-06-22T05:12:07;11.07;;;6.10;;
75090;SDS011;63674;48.048;8.306;2023-06-22T05:14:37;11.95;;;6.60;;
75090;SDS011;63674;48.048;8.306;2023-06-22T05:17:05;12.32;;;6.13;;
75090;SDS011;63674;48.048;8.306;2023-06-22T05:19:41;11.73;;;6.37;;
75090;SDS011;63674;48.048;8.306;2023-06-22T05:22:14;12.07;;;5.95;;
75090;SDS011;63674;48.048;8.306;2023-06-22T05:24:44;13.60;;;5.90;;
75090;SDS011;63674;48.048;8.306;2023-06-22T05:27:14;12.23;;;5.82;;
75090;SDS011;63674;48.048;8.306;2023-06-22T05:29:42;11.57;;;6.28;;
75090;SDS011;63674;48.048;8.306;2023-06-22T05:32:11;11.93;;;6.20;;
75090;SDS011;63674;48.048;8.306;2023-06-22T05:34:39;11.27;;;6.13;;
75090;SDS011;63674;48.048;8.306;2023-06-22T05:37:08;16.77;;;6.60;;
75090;SDS011;63674;48.048;8.306;2023-06-22T05:39:37;14.43;;;6.65;;
75090;SDS011;63674;48.048;8.306;2023-06-22T05:42:05;14.00;;;6.22;;
75090;SDS011;63674;48.048;8.306;2023-06-22T05:44:37;14.53;;;5.80;;
75090;SDS011;63674;48.048;8.306;2023-06-22T05:47:08;20.98;;;7.38;;
75090;SDS011;63674;48.048;8.306;2023-06-22T05:49:36;14.70;;;7.05;;
75090;SDS011;63674;48.048;8.306;2023-06-22T05:52:05;12.80;;;6.60;;
75090;SDS011;63674;48.048;8.306;2023-06-22T05:54:34;11.90;;;7.07;;
75090;SDS011;63674;48.048;8.306;2023-06-22T05:57:05;16.27;;;7.80;;
75090;SDS011;63674;48.048;8.306;2023-06-22T05:59:38;12.68;;;6.53;;
75090;SDS011;63674;48.048;8.306;2023-06-22T06:02:09;14.32;;;6.40;;
75090;SDS011;63674;48.048;8.306;2023-06-22T06:04:38;13.65;;;6.80;;
75090;SDS011;63674;48.048;8.306;2023-06-22T06:07:06;18.42;;;7.45;;
75090;SDS011;63674;48.048;8.306;2023-06-22T06:09:35;13.40;;;6.07;;
75090;SDS011;63674;48.048;8.306;2023-06-22T06:12:04;13.25;;;6.25;;
75090;SDS011;63674;48.048;8.306;2023-06-22T06:14:33;15.52;;;7.32;;
75090;SDS011;63674;48.048;8.306;2023-06-22T06:17:03;14.05;;;7.18;;
75090;SDS011;63674;48.048;8.306;2023-06-22T06:19:32;14.98;;;7.03;;
75090;SDS011;63674;48.048;8.306;2023-06-22T06:22:00;13.23;;;6.47;;
75090;SDS011;63674;48.048;8.306;2023-06-22T06:24:29;13.75;;;5.80;;
75090;SDS011;63674;48.048;8.306;2023-06-22T06:26:58;14.95;;;6.40;;
75090;SDS011;63674;48.048;8.306;2023-06-22T06:29:26;11.80;;;5.75;;
75090;SDS011;63674;48.048;8.306;2023-06-22T06:31:54;12.00;;;6.15;;
75090;SDS011;63674;48.048;8.306;2023-06-22T06:34:24;9.90;;;5.17;;
75090;SDS011;63674;48.048;8.306;2023-06-22T06:36:53;12.82;;;6.32;;
75090;SDS011;63674;48.048;8.306;2023-06-22T06:39:22;11.95;;;5.68;;
75090;SDS011;63674;48.048;8.306;2023-06-22T06:41:51;14.27;;;5.57;;
75090;SDS011;63674;48.048;8.306;2023-06-22T06:44:19;14.60;;;5.68;;
75090;SDS011;63674;48.048;8.306;2023-06-22T06:46:48;15.77;;;6.53;;
75090;SDS011;63674;48.048;8.306;2023-06-22T06:49:17;15.45;;;6.07;;
75090;SDS011;63674;48.048;8.306;2023-06-22T06:51:47;13.40;;;6.30;;
75090;SDS011;63674;48.048;8.306;2023-06-22T06:54:17;12.73;;;6.10;;
75090;SDS011;63674;48.048;8.306;2023-06-22T06:56:47;11.70;;;5.78;;
75090;SDS011;63674;48.048;8.306;2023-06-22T06:59:16;13.13;;;5.30;;
75090;SDS011;63674;48.048;8.306;2023-06-22T07:01:45;13.63;;;5.88;;
75090;SDS011;63674;48.048;8.306;2023-06-22T07:04:15;14.75;;;6.35;;
75090;SDS011;63674;48.048;8.306;2023-06-22T07:06:44;15.02;;;6.20;;
75090;SDS011;63674;48.048;8.306;2023-06-22T07:09:14;13.13;;;5.20;;
75090;SDS011;63674;48.048;8.306;2023-06-22T07:11:45;15.67;;;5.37;;
75090;SDS011;63674;48.048;8.306;2023-06-22T07:14:13;31.50;;;6.55;;
75090;SDS011;63674;48.048;8.306;2023-06-22T07:16:42;10.85;;;5.20;;
75090;SDS011;63674;48.048;8.306;2023-06-22T07:19:11;13.23;;;6.00;;
75090;SDS011;63674;48.048;8.306;2023-06-22T07:21:40;13.02;;;5.32;;
75090;SDS011;63674;48.048;8.306;2023-06-22T07:24:08;12.70;;;5.07;;
75090;SDS011;63674;48.048;8.306;2023-06-22T07:26:38;13.48;;;5.30;;
75090;SDS011;63674;48.048;8.306;2023-06-22T07:29:13;14.48;;;5.20;;
75090;SDS011;63674;48.048;8.306;2023-06-22T07:31:41;12.55;;;5.65;;
75090;SDS011;63674;48.048;8.306;2023-06-22T07:34:10;17.48;;;5.85;;
75090;SDS011;63674;48.048;8.306;2023-06-22T07:36:39;14.20;;;5.10;;
75090;SDS011;63674;48.048;8.306;2023-06-22T07:39:08;12.75;;;5.20;;
75090;SDS011;63674;48.048;8.306;2023-06-22T07:41:36;12.68;;;5.35;;
75090;SDS011;63674;48.048;8.306;2023-06-22T07:44:07;11.70;;;5.50;;
75090;SDS011;63674;48.048;8.306;2023-06-22T07:46:35;13.68;;;5.55;;
75090;SDS011;63674;48.048;8.306;2023-06-22T07:49:04;12.77;;;5.70;;
75090;SDS011;63674;48.048;8.306;2023-06-22T07:51:34;14.80;;;5.70;;
75090;SDS011;63674;48.048;8.306;2023-06-22T07:54:24;17.50;;;5.65;;
75090;SDS011;63674;48.048;8.306;2023-06-22T07:56:54;13.48;;;5.38;;
75090;SDS011;63674;48.048;8.306;2023-06-22T07:59:22;12.63;;;5.18;;
75090;SDS011;63674;48.048;8.306;2023-06-22T08:01:51;10.97;;;4.70;;
75090;SDS011;63674;48.048;8.306;2023-06-22T08:04:19;12.93;;;4.90;;
75090;SDS011;63674;48.048;8.306;2023-06-22T08:06:48;13.00;;;4.93;;
75090;SDS011;63674;48.048;8.306;2023-06-22T08:09:16;12.30;;;4.90;;
75090;SDS011;63674;48.048;8.306;2023-06-22T08:11:45;14.48;;;4.93;;
75090;SDS011;63674;48.048;8.306;2023-06-22T08:14:15;15.43;;;4.47;;
75090;SDS011;63674;48.048;8.306;2023-06-22T08:16:44;14.93;;;5.18;;
75090;SDS011;63674;48.048;8.306;2023-06-22T08:19:12;12.25;;;4.90;;
75090;SDS011;63674;48.048;8.306;2023-06-22T08:21:41;12.80;;;5.03;;
75090;SDS011;63674;48.048;8.306;2023-06-22T08:24:10;11.15;;;4.53;;
75090;SDS011;63674;48.048;8.306;2023-06-22T08:26:39;12.73;;;4.73;;
75090;SDS011;63674;48.048;8.306;2023-06-22T08:29:07;16.33;;;4.28;;
75090;SDS011;63674;48.048;8.306;2023-06-22T08:31:38;12.52;;;3.97;;
75090;SDS011;63674;48.048;8.306;2023-06-22T08:34:07;14.90;;;4.38;;
75090;SDS011;63674;48.048;8.306;2023-06-22T08:36:35;14.20;;;4.28;;
75090;SDS011;63674;48.048;8.306;2023-06-22T08:39:08;15.43;;;4.17;;
75090;SDS011;63674;48.048;8.306;2023-06-22T08:41:36;13.65;;;4.03;;
75090;SDS011;63674;48.048;8.306;2023-06-22T08:44:05;16.02;;;3.88;;
75090;SDS011;63674;48.048;8.306;2023-06-22T08:46:33;19.38;;;4.85;;
75090;SDS011;63674;48.048;8.306;2023-06-22T08:49:03;14.90;;;4.50;;
75090;SDS011;63674;48.048;8.306;2023-06-22T08:51:32;85.73;;;22.40;;
75090;SDS011;63674;48.048;8.306;2023-06-22T08:54:01;19.02;;;6.13;;
75090;SDS011;63674;48.048;8.306;2023-06-22T08:56:29;14.88;;;4.43;;
75090;SDS011;63674;48.048;8.306;2023-06-22T08:58:58;13.80;;;4.15;;
75090;SDS011;63674;48.048;8.306;2023-06-22T09:01:27;12.38;;;4.05;;
75090;SDS011;63674;48.048;8.306;2023-06-22T09:03:55;15.30;;;3.93;;
75090;SDS011;63674;48.048;8.306;2023-06-22T09:06:26;14.00;;;4.28;;
75090;SDS011;63674;48.048;8.306;2023-06-22T09:08:57;14.80;;;4.25;;
75090;SDS011;63674;48.048;8.306;2023-06-22T09:11:27;16.48;;;3.58;;
75090;SDS011;63674;48.048;8.306;2023-06-22T09:13:55;14.35;;;3.97;;
75090;SDS011;63674;48.048;8.306;2023-06-22T09:16:24;14.67;;;3.87;;
75090;SDS011;63674;48.048;8.306;2023-06-22T09:18:52;17.20;;;4.50;;
75090;SDS011;63674;48.048;8.306;2023-06-22T09:21:21;15.13;;;4.10;;
75090;SDS011;63674;48.048;8.306;2023-06-22T09:23:52;15.90;;;3.95;;
75090;SDS011;63674;48.048;8.306;2023-06-22T09:26:20;14.82;;;3.80;;
75090;SDS011;63674;48.048;8.306;2023-06-22T09:28:50;13.77;;;3.73;;
75090;SDS011;63674;48.048;8.306;2023-06-22T09:31:19;17.38;;;4.13;;
75090;SDS011;63674;48.048;8.306;2023-06-22T09:33:52;16.83;;;4.03;;
75090;SDS011;63674;48.048;8.306;2023-06-22T09:36:21;18.67;;;3.63;;
75090;SDS011;63674;48.048;8.306;2023-06-22T09:38:51;15.48;;;3.38;;
75090;SDS011;63674;48.048;8.306;2023-06-22T09:41:22;23.07;;;3.93;;
75090;SDS011;63674;48.048;8.306;2023-06-22T09:43:51;38.90;;;3.90;;
75090;SDS011;63674;48.048;8.306;2023-06-22T09:46:22;22.25;;;3.67;;
75090;SDS011;63674;48.048;8.306;2023-06-22T09:48:52;18.13;;;3.60;;
75090;SDS011;63674;48.048;8.306;2023-06-22T09:51:20;17.30;;;3.72;;
75090;SDS011;63674;48.048;8.306;2023-06-22T09:53:51;14.43;;;3.07;;
75090;SDS011;63674;48.048;8.306;2023-06-22T09:56:21;14.02;;;3.40;;
75090;SDS011;63674;48.048;8.306;2023-06-22T09:58:52;19.65;;;3.78;;
75090;SDS011;63674;48.048;8.306;2023-06-22T10:01:31;18.80;;;3.55;;
75090;SDS011;63674;48.048;8.306;2023-06-22T10:03:59;19.90;;;3.70;;
75090;SDS011;63674;48.048;8.306;2023-06-22T10:06:30;20.10;;;3.47;;
75090;SDS011;63674;48.048;8.306;2023-06-22T10:09:00;20.88;;;3.95;;
75090;SDS011;63674;48.048;8.306;2023-06-22T10:11:29;16.63;;;3.45;;
75090;SDS011;63674;48.048;8.306;2023-06-22T10:13:58;13.10;;;2.92;;
75090;SDS011;63674;48.048;8.306;2023-06-22T10:16:29;17.98;;;3.90;;
75090;SDS011;63674;48.048;8.306;2023-06-22T10:18:59;18.93;;;3.53;;
75090;SDS011;63674;48.048;8.306;2023-06-22T10:21:27;15.35;;;4.25;;
75090;SDS011;63674;48.048;8.306;2023-06-22T10:23:56;18.77;;;5.05;;
75090;SDS011;63674;48.048;8.306;2023-06-22T10:26:27;13.82;;;5.00;;
75090;SDS011;63674;48.048;8.306;2023-06-22T10:28:55;15.35;;;4.72;;
75090;SDS011;63674;48.048;8.306;2023-06-22T10:31:41;13.13;;;5.00;;
75090;SDS011;63674;48.048;8.306;2023-06-22T10:34:10;16.70;;;4.70;;
75090;SDS011;63674;48.048;8.306;2023-06-22T10:36:38;11.63;;;4.70;;
75090;SDS011;63674;48.048;8.306;2023-06-22T10:39:07;13.10;;;4.78;;
75090;SDS011;63674;48.048;8.306;2023-06-22T10:41:37;13.80;;;4.55;;
75090;SDS011;63674;48.048;8.306;2023-06-22T10:44:06;12.77;;;4.70;;
75090;SDS011;63674;48.048;8.306;2023-06-22T10:46:34;11.40;;;4.30;;
75090;SDS011;63674;48.048;8.306;2023-06-22T10:49:03;16.55;;;5.30;;
75090;SDS011;63674;48.048;8.306;2023-06-22T10:51:31;13.30;;;4.60;;
75090;SDS011;63674;48.048;8.306;2023-06-22T10:54:00;14.25;;;4.80;;
75090;SDS011;63674;48.048;8.306;2023-06-22T10:56:30;13.17;;;4.93;;
75090;SDS011;63674;48.048;8.306;2023-06-22T10:59:01;16.27;;;4.70;;
75090;SDS011;63674;48.048;8.306;2023-06-22T11:01:30;13.90;;;5.07;;
75090;SDS011;63674;48.048;8.306;2023-06-22T11:04:02;11.73;;;4.80;;
75090;SDS011;63674;48.048;8.306;2023-06-22T11:06:31;16.00;;;5.53;;
75090;SDS011;63674;48.048;8.306;2023-06-22T11:09:00;12.43;;;5.33;;
75090;SDS011;63674;48.048;8.306;2023-06-22T11:11:51;12.77;;;5.00;;
75090;SDS011;63674;48.048;8.306;2023-06-22T11:14:22;17.45;;;5.65;;
75090;SDS011;63674;48.048;8.306;2023-06-22T11:16:51;14.48;;;5.38;;
75090;SDS011;63674;48.048;8.306;2023-06-22T11:19:20;12.55;;;4.82;;
75090;SDS011;63674;48.048;8.306;2023-06-22T11:21:48;12.43;;;5.20;;
75090;SDS011;63674;48.048;8.306;2023-06-22T11:24:17;13.13;;;4.80;;
75090;SDS011;63674;48.048;8.306;2023-06-22T11:26:45;19.35;;;6.65;;
75090;SDS011;63674;48.048;8.306;2023-06-22T11:29:14;37.08;;;10.57;;
75090;SDS011;63674;48.048;8.306;2023-06-22T11:32:03;25.90;;;6.47;;
75090;SDS011;63674;48.048;8.306;2023-06-22T11:34:35;15.80;;;5.20;;
75090;SDS011;63674;48.048;8.306;2023-06-22T11:37:04;14.93;;;4.63;;
75090;SDS011;63674;48.048;8.306;2023-06-22T11:39:33;14.85;;;5.50;;
75090;SDS011;63674;48.048;8.306;2023-06-22T11:42:13;14.52;;;5.18;;
75090;SDS011;63674;48.048;8.306;2023-06-22T11:44:41;16.52;;;5.30;;
75090;SDS011;63674;48.048;8.306;2023-06-22T11:47:12;14.17;;;3.83;;
75090;SDS011;63674;48.048;8.306;2023-06-22T11:49:41;15.45;;;3.05;;
75090;SDS011;63674;48.048;8.306;2023-06-22T11:52:09;13.77;;;3.15;;
75090;SDS011;63674;48.048;8.306;2023-06-22T11:54:38;17.75;;;3.65;;
75090;SDS011;63674;48.048;8.306;2023-06-22T11:57:06;16.75;;;4.25;;
75090;SDS011;63674;48.048;8.306;2023-06-22T11:59:35;15.03;;;4.53;;
75090;SDS011;63674;48.048;8.306;2023-06-22T12:02:04;16.98;;;3.45;;
75090;SDS011;63674;48.048;8.306;2023-06-22T12:04:37;21.92;;;2.80;;
75090;SDS011;63674;48.048;8.306;2023-06-22T12:07:05;16.10;;;2.45;;
75090;SDS011;63674;48.048;8.306;2023-06-22T12:09:34;13.00;;;3.03;;
75090;SDS011;63674;48.048;8.306;2023-06-22T12:12:02;13.77;;;2.40;;
75090;SDS011;63674;48.048;8.306;2023-06-22T12:14:32;14.98;;;2.45;;
75090;SDS011;63674;48.048;8.306;2023-06-22T12:17:00;15.38;;;3.25;;
75090;SDS011;63674;48.048;8.306;2023-06-22T12:19:29;11.52;;;2.50;;
75090;SDS011;63674;48.048;8.306;2023-06-22T12:21:59;10.82;;;2.35;;
75090;SDS011;63674;48.048;8.306;2023-06-22T12:24:28;15.00;;;2.60;;
75090;SDS011;63674;48.048;8.306;2023-06-22T12:26:57;15.32;;;2.58;;
75090;SDS011;63674;48.048;8.306;2023-06-22T12:29:25;12.15;;;2.63;;
75090;SDS011;63674;48.048;8.306;2023-06-22T12:31:54;13.00;;;2.67;;
75090;SDS011;63674;48.048;8.306;2023-06-22T12:34:22;16.48;;;2.03;;
75090;SDS011;63674;48.048;8.306;2023-06-22T12:36:51;10.47;;;2.30;;
75090;SDS011;63674;48.048;8.306;2023-06-22T12:39:22;16.38;;;2.40;;
75090;SDS011;63674;48.048;8.306;2023-06-22T12:41:50;13.52;;;2.50;;
75090;SDS011;63674;48.048;8.306;2023-06-22T12:44:19;11.68;;;2.53;;
75090;SDS011;63674;48.048;8.306;2023-06-22T12:46:48;12.50;;;2.70;;
75090;SDS011;63674;48.048;8.306;2023-06-22T12:49:16;14.90;;;2.47;;
75090;SDS011;63674;48.048;8.306;2023-06-22T12:51:45;17.75;;;3.15;;
75090;SDS011;63674;48.048;8.306;2023-06-22T12:54:14;15.38;;;2.60;;
75090;SDS011;63674;48.048;8.306;2023-06-22T12:56:44;13.30;;;2.50;;
75090;SDS011;63674;48.048;8.306;2023-06-22T12:59:12;14.07;;;2.97;;
75090;SDS011;63674;48.048;8.306;2023-06-22T13:01:41;12.67;;;3.10;;
75090;SDS011;63674;48.048;8.306;2023-06-22T13:04:10;14.93;;;2.75;;
75090;SDS011;63674;48.048;8.306;2023-06-22T13:06:41;17.08;;;3.00;;
75090;SDS011;63674;48.048;8.306;2023-06-22T13:09:10;21.75;;;3.50;;
75090;SDS011;63674;48.048;8.306;2023-06-22T13:11:41;14.57;;;3.42;;
75090;SDS011;63674;48.048;8.306;2023-06-22T13:14:11;15.60;;;2.80;;
75090;SDS011;63674;48.048;8.306;2023-06-22T13:16:40;13.23;;;3.10;;
75090;SDS011;63674;48.048;8.306;2023-06-22T13:19:08;13.68;;;2.92;;
75090;SDS011;63674;48.048;8.306;2023-06-22T13:21:37;13.63;;;3.20;;
75090;SDS011;63674;48.048;8.306;2023-06-22T13:24:06;14.75;;;3.45;;
75090;SDS011;63674;48.048;8.306;2023-06-22T13:26:34;15.87;;;3.80;;
75090;SDS011;63674;48.048;8.306;2023-06-22T13:29:04;12.70;;;3.63;;
75090;SDS011;63674;48.048;8.306;2023-06-22T13:31:33;13.23;;;3.95;;
75090;SDS011;63674;48.048;8.306;2023-06-22T13:34:02;11.52;;;3.55;;
75090;SDS011;63674;48.048;8.306;2023-06-22T13:36:30;15.00;;;3.58;;
75090;SDS011;63674;48.048;8.306;2023-06-22T13:38:59;16.67;;;4.00;;
75090;SDS011;63674;48.048;8.306;2023-06-22T13:41:27;14.40;;;4.13;;
75090;SDS011;63674;48.048;8.306;2023-06-22T13:43:56;14.15;;;4.25;;
75090;SDS011;63674;48.048;8.306;2023-06-22T13:46:26;14.02;;;4.00;;
75090;SDS011;63674;48.048;8.306;2023-06-22T13:48:55;17.30;;;4.80;;
75090;SDS011;63674;48.048;8.306;2023-06-22T13:51:24;16.87;;;4.07;;
75090;SDS011;63674;48.048;8.306;2023-06-22T13:53:53;12.98;;;4.07;;
75090;SDS011;63674;48.048;8.306;2023-06-22T13:56:21;16.15;;;4.20;;
75090;SDS011;63674;48.048;8.306;2023-06-22T13:58:50;16.45;;;4.03;;
75090;SDS011;63674;48.048;8.306;2023-06-22T14:01:18;13.48;;;4.00;;
75090;SDS011;63674;48.048;8.306;2023-06-22T14:03:48;13.53;;;4.03;;
75090;SDS011;63674;48.048;8.306;2023-06-22T14:06:17;15.02;;;4.03;;
75090;SDS011;63674;48.048;8.306;2023-06-22T14:08:46;16.70;;;4.68;;
75090;SDS011;63674;48.048;8.306;2023-06-22T14:11:14;15.05;;;4.85;;
75090;SDS011;63674;48.048;8.306;2023-06-22T14:13:43;16.25;;;4.65;;
75090;SDS011;63674;48.048;8.306;2023-06-22T14:16:11;18.67;;;4.60;;
75090;SDS011;63674;48.048;8.306;2023-06-22T14:18:40;17.10;;;5.35;;
75090;SDS011;63674;48.048;8.306;2023-06-22T14:21:10;15.70;;;5.10;;
75090;SDS011;63674;48.048;8.306;2023-06-22T14:23:38;14.10;;;4.40;;
75090;SDS011;63674;48.048;8.306;2023-06-22T14:26:07;19.05;;;5.03;;
75090;SDS011;63674;48.048;8.306;2023-06-22T14:28:35;14.13;;;4.60;;
75090;SDS011;63674;48.048;8.306;2023-06-22T14:31:04;16.27;;;4.40;;
75090;SDS011;63674;48.048;8.306;2023-06-22T14:33:32;13.82;;;4.57;;
75090;SDS011;63674;48.048;8.306;2023-06-22T14:36:01;14.60;;;4.50;;
75090;SDS011;63674;48.048;8.306;2023-06-22T14:38:31;14.07;;;4.43;;
75090;SDS011;63674;48.048;8.306;2023-06-22T14:41:00;15.37;;;4.53;;
75090;SDS011;63674;48.048;8.306;2023-06-22T14:43:43;13.80;;;4.43;;
75090;SDS011;63674;48.048;8.306;2023-06-22T14:48:42;14.52;;;4.72;;
75090;SDS011;63674;48.048;8.306;2023-06-22T14:51:11;13.70;;;4.95;;